This is the latest recevied weather packets stored in our database for station/object DM5EI-L4. If no packets are shown the sender has not sent any weather packets the latest 10 day(s).
| Time | Temp. | Humidity | Pressure | Rain* | Wind** | Luminosity | Snow |
|---|---|---|---|---|---|---|---|
| 1778245552 | 19.44° C | 98% | 1020 hPa | - | - | - | - |
| 1778244651 | 19.44° C | 97% | 1020 hPa | - | - | - | - |
| 1778243750 | 19.44° C | 98% | 1020 hPa | - | - | - | - |
| 1778242849 | 18.33° C | 97% | 1021 hPa | - | - | - | - |
| 1778241948 | 18.33° C | 98% | 1021 hPa | - | - | - | - |
| 1778241047 | 17.78° C | 98% | 1021 hPa | - | - | - | - |
| 1778240146 | 17.22° C | 98% | 1021 hPa | - | - | - | - |
| 1778239244 | 17.22° C | 98% | 1021 hPa | - | - | - | - |
| 1778238343 | 17.22° C | 97% | 1021 hPa | - | - | - | - |
| 1778237442 | 16.67° C | 98% | 1021 hPa | - | - | - | - |
| 1778236541 | 16.67° C | 98% | 1021 hPa | - | - | - | - |
| 1778235640 | 16.67° C | 98% | 1021 hPa | - | - | - | - |
| 1778234739 | 16.67° C | 98% | 1021 hPa | - | - | - | - |
| 1778233838 | 16.11° C | 99% | 1021 hPa | - | - | - | - |
| 1778232937 | 15.56° C | 98% | 1021 hPa | - | - | - | - |
| 1778232036 | 16.11° C | 98% | 1021 hPa | - | - | - | - |
| 1778231135 | 16.11° C | 98% | 1021 hPa | - | - | - | - |
| 1778230233 | 15.56° C | 97% | 1021 hPa | - | - | - | - |
| 1778229332 | 15.56° C | 95% | 1021 hPa | - | - | - | - |
| 1778228431 | 17.78° C | 87% | 1021 hPa | - | - | - | - |
| 1778227530 | 16.11° C | 93% | 1021 hPa | - | - | - | - |
| 1778226629 | 16.11° C | 94% | 1022 hPa | - | - | - | - |
| 1778225728 | 16.11° C | 95% | 1021 hPa | - | - | - | - |
| 1778224827 | 16.11° C | 93% | 1021 hPa | - | - | - | - |
| 1778223926 | 16.67° C | 92% | 1021 hPa | - | - | - | - |
* Rain since midnight (hover to see other rain measurements)
** Current wind speed in m/s (hover to see current wind gust speed)